Terminal Aerodrome Forecast
Issued by NWS Albany, NY

Home | Current Version | Previous Version | Text Only | Print | Product List | Glossary On
Versions: 1 2 3 4 5 6 7 8 9 10 11 12 13 14 15 16 17 18 19 20 21
000
FTUS41 KALY 171700
TAFALB
TAF
KALB 171720Z 1718/1818 27005KT 4SM BR VCSH SCT005 OVC025
      TEMPO 1718/1721 2SM BR BKN005 OVC025
     FM172100 28010KT P6SM OVC020
     FM180500 28012G18KT P6SM OVC030
     FM181300 29015G25KT P6SM BKN035=

USA.gov is the U.S. government's official web portal to all federal, state and local government web resources and services.